SWR98Q LPFR-EDDH
Flight info
| Callsign | SWR98Q |
|---|---|
| Flight time | N/A |
| Altitude | 36000 |
| Route | ELVAR DCT BARDI DCT ZMR DCT NUBLO DCT RONSI DCT DELOG/N0476F380 DCT GODEM DCT USODA DCT ERCUT DCT DITAL UN873 ADUTO/N0487F370 DCT VICOT DCT PABCO M105 RIBSO RIBSO7A |
| Aircraft | MD11/H-SDE1E2E3FGHIJ2J3J4J5M1RWXY/LB1D1 |
Departure
| Time | N/A |
|---|---|
| Airport | Faro - Gago Coutinho International Airport (LPFR) |
Arrival
| Time | 2026-04-20 20:43 |
|---|---|
| Airport | Hamburg Helmut Schmidt Airport (EDDH) |
| Time | Latitude | Longitude | Altitude | Speed | Heading |
|---|---|---|---|---|---|
| 2026-04-20 18:45 | 42.97500 | -4.80803 | 35958 ft | 489 kts | 20° |
| 2026-04-20 18:46 | 43.03745 | -4.77112 | 35971 ft | 489 kts | 20° |
| 2026-04-20 18:46 | 43.09860 | -4.73491 | 35968 ft | 489 kts | 20° |
| 2026-04-20 18:47 | 43.16107 | -4.69783 | 35968 ft | 489 kts | 20° |
| 2026-04-20 18:47 | 43.22342 | -4.66074 | 35976 ft | 488 kts | 20° |
| 2026-04-20 18:48 | 43.28585 | -4.62352 | 35978 ft | 489 kts | 20° |
| 2026-04-20 18:48 | 43.34831 | -4.58620 | 35977 ft | 489 kts | 20° |
| 2026-04-20 18:49 | 43.41075 | -4.54880 | 35975 ft | 489 kts | 20° |
| 2026-04-20 18:49 | 43.47048 | -4.50500 | 35975 ft | 493 kts | 31° |
| 2026-04-20 18:50 | 43.52677 | -4.45053 | 35974 ft | 494 kts | 33° |
| 2026-04-20 18:50 | 43.58332 | -4.39647 | 35973 ft | 494 kts | 31° |
| 2026-04-20 18:51 | 43.64047 | -4.34398 | 35971 ft | 494 kts | 31° |
| 2026-04-20 18:51 | 43.69800 | -4.29179 | 35968 ft | 494 kts | 30° |
| 2026-04-20 18:52 | 43.75539 | -4.23963 | 35969 ft | 494 kts | 31° |
| 2026-04-20 18:52 | 43.81280 | -4.18723 | 35967 ft | 494 kts | 31° |
| 2026-04-20 18:53 | 43.87016 | -4.13473 | 35964 ft | 494 kts | 31° |
| 2026-04-20 18:53 | 43.92707 | -4.08251 | 35962 ft | 494 kts | 31° |
| 2026-04-20 18:54 | 43.98442 | -4.02976 | 35962 ft | 493 kts | 31° |
| 2026-04-20 18:54 | 44.04154 | -3.97711 | 35961 ft | 493 kts | 31° |
| 2026-04-20 18:55 | 44.09874 | -3.92425 | 35961 ft | 493 kts | 31° |
| 2026-04-20 18:55 | 44.15585 | -3.87136 | 35961 ft | 493 kts | 31° |
| 2026-04-20 18:56 | 44.21284 | -3.81814 | 35960 ft | 493 kts | 31° |
| 2026-04-20 18:56 | 44.26957 | -3.76507 | 35958 ft | 493 kts | 31° |
| 2026-04-20 18:57 | 44.32654 | -3.71183 | 35960 ft | 493 kts | 31° |
| 2026-04-20 18:57 | 44.38351 | -3.65856 | 35962 ft | 492 kts | 31° |
| 2026-04-20 18:58 | 44.44052 | -3.60515 | 35958 ft | 492 kts | 31° |
| 2026-04-20 18:58 | 44.49735 | -3.55175 | 35958 ft | 492 kts | 31° |
| 2026-04-20 18:59 | 44.55427 | -3.49815 | 35961 ft | 492 kts | 31° |
| 2026-04-20 18:59 | 44.61069 | -3.44490 | 35961 ft | 492 kts | 31° |
| 2026-04-20 19:00 | 44.66753 | -3.39111 | 35955 ft | 492 kts | 31° |
| 2026-04-20 19:00 | 44.72432 | -3.33724 | 35962 ft | 492 kts | 31° |
| 2026-04-20 19:01 | 44.78115 | -3.28321 | 35965 ft | 492 kts | 31° |
| 2026-04-20 19:01 | 44.83792 | -3.22910 | 35964 ft | 492 kts | 31° |
| 2026-04-20 19:02 | 44.89459 | -3.17496 | 35964 ft | 492 kts | 31° |
| 2026-04-20 19:02 | 44.95081 | -3.12090 | 35966 ft | 492 kts | 31° |
| 2026-04-20 19:03 | 45.00728 | -3.06634 | 35961 ft | 492 kts | 31° |
| 2026-04-20 19:03 | 45.06373 | -3.01190 | 35971 ft | 491 kts | 31° |
| 2026-04-20 19:04 | 45.12019 | -2.95743 | 35973 ft | 491 kts | 31° |
| 2026-04-20 19:04 | 45.17663 | -2.90285 | 35974 ft | 491 kts | 31° |
| 2026-04-20 19:05 | 45.23314 | -2.84808 | 35960 ft | 491 kts | 31° |
| 2026-04-20 19:05 | 45.28916 | -2.79363 | 35968 ft | 490 kts | 31° |
| 2026-04-20 19:06 | 45.34546 | -2.73878 | 35968 ft | 490 kts | 31° |
| 2026-04-20 19:06 | 45.40176 | -2.68379 | 35971 ft | 490 kts | 31° |
| 2026-04-20 19:07 | 45.45794 | -2.62880 | 35974 ft | 490 kts | 31° |
| 2026-04-20 19:07 | 45.51410 | -2.57368 | 35976 ft | 490 kts | 31° |
| 2026-04-20 19:08 | 45.59827 | -2.49081 | 35978 ft | 490 kts | 31° |
| 2026-04-20 19:09 | 45.65424 | -2.43518 | 35982 ft | 490 kts | 31° |
| 2026-04-20 19:09 | 45.71021 | -2.37949 | 35985 ft | 490 kts | 31° |
| 2026-04-20 19:10 | 45.76615 | -2.32390 | 35983 ft | 490 kts | 30° |
| 2026-04-20 19:10 | 45.82182 | -2.26852 | 35988 ft | 489 kts | 30° |
| 2026-04-20 19:11 | 45.87771 | -2.21278 | 35991 ft | 489 kts | 30° |
| 2026-04-20 19:11 | 45.93359 | -2.15691 | 35995 ft | 489 kts | 30° |
| 2026-04-20 19:12 | 45.98945 | -2.10092 | 35997 ft | 489 kts | 30° |
| 2026-04-20 19:12 | 46.04532 | -2.04477 | 35997 ft | 489 kts | 30° |
| 2026-04-20 19:13 | 46.10113 | -1.98854 | 36003 ft | 489 kts | 30° |
| 2026-04-20 19:13 | 46.15663 | -1.93249 | 36005 ft | 489 kts | 30° |
| 2026-04-20 19:14 | 46.21236 | -1.87606 | 36011 ft | 489 kts | 30° |
| 2026-04-20 19:14 | 46.26809 | -1.81949 | 36012 ft | 489 kts | 30° |
| 2026-04-20 19:15 | 46.31441 | -1.77217 | 36015 ft | 489 kts | 30° |
| 2026-04-20 19:15 | 46.36967 | -1.71541 | 36014 ft | 489 kts | 30° |
| 2026-04-20 19:16 | 46.42530 | -1.65839 | 36019 ft | 489 kts | 30° |
| 2026-04-20 19:16 | 46.48098 | -1.60129 | 36030 ft | 489 kts | 30° |
| 2026-04-20 19:17 | 46.53647 | -1.54428 | 36040 ft | 488 kts | 30° |
| 2026-04-20 19:17 | 46.59160 | -1.48749 | 36046 ft | 488 kts | 30° |
| 2026-04-20 19:18 | 46.64701 | -1.43026 | 36041 ft | 488 kts | 30° |
| 2026-04-20 19:18 | 46.70236 | -1.37293 | 36044 ft | 488 kts | 30° |
| 2026-04-20 19:19 | 46.75770 | -1.31547 | 36047 ft | 487 kts | 30° |
| 2026-04-20 19:19 | 46.81293 | -1.25798 | 36048 ft | 487 kts | 30° |
| 2026-04-20 19:20 | 46.86808 | -1.20043 | 36050 ft | 487 kts | 30° |
| 2026-04-20 19:20 | 46.92314 | -1.14281 | 36052 ft | 487 kts | 30° |
| 2026-04-20 19:21 | 46.97787 | -1.08532 | 36052 ft | 486 kts | 31° |
| 2026-04-20 19:21 | 47.03269 | -1.02721 | 36051 ft | 486 kts | 31° |
| 2026-04-20 19:22 | 47.08760 | -0.96910 | 36184 ft | 487 kts | 31° |
| 2026-04-20 19:22 | 47.11520 | -0.93991 | 36427 ft | 487 kts | 31° |
| 2026-04-20 19:22 | 47.14269 | -0.91083 | 36681 ft | 487 kts | 31° |
| 2026-04-20 19:22 | 47.17014 | -0.88175 | 36922 ft | 487 kts | 31° |
| 2026-04-20 19:23 | 47.19768 | -0.85255 | 37159 ft | 486 kts | 31° |
| 2026-04-20 19:23 | 47.22508 | -0.82344 | 37389 ft | 486 kts | 31° |
| 2026-04-20 19:23 | 47.25250 | -0.79429 | 37598 ft | 486 kts | 31° |
| 2026-04-20 19:23 | 47.27993 | -0.76509 | 37836 ft | 486 kts | 31° |
| 2026-04-20 19:24 | 47.30729 | -0.73591 | 38024 ft | 486 kts | 31° |
| 2026-04-20 19:24 | 47.36051 | -0.67908 | 38079 ft | 488 kts | 31° |
| 2026-04-20 19:25 | 47.41529 | -0.62038 | 38088 ft | 485 kts | 31° |
| 2026-04-20 19:25 | 47.46931 | -0.56162 | 38096 ft | 486 kts | 32° |
| 2026-04-20 19:26 | 47.52347 | -0.50171 | 38103 ft | 486 kts | 32° |
| 2026-04-20 19:26 | 47.57771 | -0.44165 | 38106 ft | 486 kts | 32° |
| 2026-04-20 19:27 | 47.63203 | -0.38149 | 38104 ft | 487 kts | 32° |
| 2026-04-20 19:27 | 47.68628 | -0.32130 | 38103 ft | 487 kts | 32° |
| 2026-04-20 19:28 | 47.74059 | -0.26088 | 38103 ft | 488 kts | 32° |
| 2026-04-20 19:28 | 47.79487 | -0.20031 | 38103 ft | 488 kts | 32° |
| 2026-04-20 19:29 | 47.84920 | -0.13954 | 38107 ft | 488 kts | 32° |
| 2026-04-20 19:29 | 47.90344 | -0.07870 | 38106 ft | 489 kts | 32° |
| 2026-04-20 19:30 | 47.95780 | -0.01756 | 38107 ft | 489 kts | 32° |
| 2026-04-20 19:30 | 48.01206 | 0.04363 | 38105 ft | 489 kts | 32° |
| 2026-04-20 19:31 | 48.06629 | 0.10496 | 38105 ft | 489 kts | 32° |
| 2026-04-20 19:31 | 48.12018 | 0.16626 | 38112 ft | 489 kts | 33° |
| 2026-04-20 19:32 | 48.17434 | 0.22832 | 38122 ft | 490 kts | 32° |
| 2026-04-20 19:32 | 48.22843 | 0.29019 | 38123 ft | 490 kts | 32° |
| 2026-04-20 19:33 | 48.28272 | 0.35227 | 38133 ft | 490 kts | 32° |
| 2026-04-20 19:33 | 48.33690 | 0.41435 | 38138 ft | 490 kts | 32° |
| 2026-04-20 19:34 | 48.39106 | 0.47661 | 38139 ft | 490 kts | 32° |
| 2026-04-20 19:34 | 48.44518 | 0.53898 | 38142 ft | 490 kts | 32° |
| 2026-04-20 19:35 | 48.49890 | 0.60108 | 38146 ft | 490 kts | 32° |
| 2026-04-20 19:35 | 48.55302 | 0.66380 | 38135 ft | 489 kts | 33° |
| 2026-04-20 19:36 | 48.60695 | 0.72649 | 38140 ft | 489 kts | 33° |
| 2026-04-20 19:36 | 48.66089 | 0.78936 | 38156 ft | 489 kts | 33° |
| 2026-04-20 19:37 | 48.71469 | 0.85223 | 38158 ft | 488 kts | 33° |
| 2026-04-20 19:37 | 48.76839 | 0.91505 | 38160 ft | 487 kts | 33° |
| 2026-04-20 19:38 | 48.82216 | 0.97747 | 38162 ft | 487 kts | 32° |
| 2026-04-20 19:38 | 48.87565 | 1.03932 | 38164 ft | 486 kts | 32° |
| 2026-04-20 19:39 | 48.92982 | 1.10204 | 38170 ft | 486 kts | 32° |
| 2026-04-20 19:39 | 48.98313 | 1.16396 | 38172 ft | 485 kts | 32° |
| 2026-04-20 19:40 | 49.03652 | 1.22693 | 38177 ft | 486 kts | 35° |
| 2026-04-20 19:40 | 49.08693 | 1.29632 | 38178 ft | 488 kts | 39° |
| 2026-04-20 19:41 | 49.13584 | 1.36825 | 38183 ft | 488 kts | 39° |
| 2026-04-20 19:41 | 49.18452 | 1.43968 | 38185 ft | 487 kts | 39° |
| 2026-04-20 19:42 | 49.23355 | 1.51115 | 38183 ft | 486 kts | 39° |
| 2026-04-20 19:42 | 49.28260 | 1.58268 | 38186 ft | 486 kts | 39° |
| 2026-04-20 19:43 | 49.33152 | 1.65414 | 38183 ft | 485 kts | 39° |
| 2026-04-20 19:43 | 49.38045 | 1.72567 | 38190 ft | 485 kts | 39° |
| 2026-04-20 19:44 | 49.42917 | 1.79705 | 38175 ft | 484 kts | 39° |
| 2026-04-20 19:44 | 49.47784 | 1.86855 | 38195 ft | 483 kts | 39° |
| 2026-04-20 19:45 | 49.52631 | 1.94009 | 38186 ft | 483 kts | 39° |
| 2026-04-20 19:45 | 49.57435 | 2.01143 | 38188 ft | 482 kts | 40° |
| 2026-04-20 19:46 | 49.62264 | 2.08317 | 38191 ft | 482 kts | 40° |
| 2026-04-20 19:46 | 49.67089 | 2.15496 | 38193 ft | 482 kts | 40° |
| 2026-04-20 19:47 | 49.71908 | 2.22685 | 38199 ft | 482 kts | 40° |
| 2026-04-20 19:47 | 49.76725 | 2.29895 | 38207 ft | 482 kts | 40° |
| 2026-04-20 19:48 | 49.81526 | 2.37124 | 38204 ft | 482 kts | 40° |
| 2026-04-20 19:48 | 49.86336 | 2.44376 | 38209 ft | 482 kts | 40° |
| 2026-04-20 19:49 | 49.91147 | 2.51634 | 38213 ft | 483 kts | 40° |
| 2026-04-20 19:49 | 49.95969 | 2.58935 | 38210 ft | 484 kts | 40° |
| 2026-04-20 19:50 | 50.00740 | 2.66216 | 38214 ft | 484 kts | 40° |
| 2026-04-20 19:50 | 50.05542 | 2.73563 | 38211 ft | 485 kts | 40° |
| 2026-04-20 19:51 | 50.10358 | 2.80942 | 38213 ft | 486 kts | 40° |
| 2026-04-20 19:51 | 50.15171 | 2.88336 | 38212 ft | 487 kts | 40° |
| 2026-04-20 19:52 | 50.19937 | 2.95678 | 38215 ft | 488 kts | 40° |
| 2026-04-20 19:52 | 50.24766 | 3.03141 | 38211 ft | 489 kts | 40° |
| 2026-04-20 19:53 | 50.29579 | 3.10601 | 38213 ft | 490 kts | 40° |
| 2026-04-20 19:53 | 50.34426 | 3.18137 | 38213 ft | 491 kts | 40° |
| 2026-04-20 19:54 | 50.39220 | 3.25549 | 38213 ft | 489 kts | 37° |
| 2026-04-20 19:54 | 50.44790 | 3.31418 | 38215 ft | 480 kts | 22° |
| 2026-04-20 19:55 | 50.50824 | 3.35871 | 38212 ft | 479 kts | 19° |
| 2026-04-20 19:55 | 50.56939 | 3.40011 | 38214 ft | 478 kts | 19° |
| 2026-04-20 19:56 | 50.62031 | 3.43475 | 38216 ft | 479 kts | 19° |
| 2026-04-20 19:56 | 50.69164 | 3.48444 | 38216 ft | 479 kts | 20° |
| 2026-04-20 19:57 | 50.75258 | 3.52738 | 38217 ft | 479 kts | 20° |
| 2026-04-20 19:57 | 50.81305 | 3.57013 | 38215 ft | 479 kts | 20° |
| 2026-04-20 19:58 | 50.87357 | 3.61301 | 38212 ft | 479 kts | 20° |
| 2026-04-20 19:58 | 50.93443 | 3.65625 | 38216 ft | 479 kts | 20° |
| 2026-04-20 19:59 | 50.99520 | 3.69955 | 38216 ft | 479 kts | 21° |
| 2026-04-20 19:59 | 51.05603 | 3.74301 | 38215 ft | 479 kts | 21° |
| 2026-04-20 20:00 | 51.11675 | 3.78697 | 38216 ft | 480 kts | 24° |
| 2026-04-20 20:00 | 51.17112 | 3.84954 | 38219 ft | 487 kts | 43° |
| 2026-04-20 20:01 | 51.21134 | 3.93712 | 38220 ft | 494 kts | 58° |
| 2026-04-20 20:01 | 51.24619 | 4.03143 | 38224 ft | 493 kts | 53° |
| 2026-04-20 20:02 | 51.28682 | 4.11818 | 38220 ft | 490 kts | 48° |
| 2026-04-20 20:02 | 51.33086 | 4.20112 | 38221 ft | 489 kts | 46° |
| 2026-04-20 20:03 | 51.37519 | 4.28351 | 38207 ft | 489 kts | 47° |
| 2026-04-20 20:03 | 51.41219 | 4.35305 | 38217 ft | 489 kts | 47° |
| 2026-04-20 20:04 | 51.45582 | 4.43553 | 38208 ft | 488 kts | 47° |
| 2026-04-20 20:04 | 51.49968 | 4.51874 | 38213 ft | 488 kts | 47° |
| 2026-04-20 20:05 | 51.54345 | 4.60201 | 38208 ft | 488 kts | 47° |
| 2026-04-20 20:05 | 51.58716 | 4.68542 | 38214 ft | 488 kts | 47° |
| 2026-04-20 20:06 | 51.63088 | 4.76913 | 38214 ft | 488 kts | 47° |
| 2026-04-20 20:06 | 51.67448 | 4.85288 | 38223 ft | 488 kts | 48° |
| 2026-04-20 20:07 | 51.71802 | 4.93680 | 38220 ft | 488 kts | 48° |
| 2026-04-20 20:07 | 51.76154 | 5.02095 | 38228 ft | 488 kts | 48° |
| 2026-04-20 20:08 | 51.80494 | 5.10515 | 38222 ft | 487 kts | 48° |
| 2026-04-20 20:08 | 51.84797 | 5.18890 | 38223 ft | 487 kts | 48° |
| 2026-04-20 20:09 | 51.89110 | 5.27345 | 38233 ft | 487 kts | 49° |
| 2026-04-20 20:09 | 51.93395 | 5.35840 | 38225 ft | 487 kts | 49° |
| 2026-04-20 20:10 | 51.97689 | 5.44324 | 38231 ft | 486 kts | 49° |
| 2026-04-20 20:10 | 52.01991 | 5.52814 | 38235 ft | 486 kts | 49° |
| 2026-04-20 20:11 | 52.06254 | 5.61247 | 38238 ft | 485 kts | 49° |
| 2026-04-20 20:11 | 52.10530 | 5.69738 | 38239 ft | 485 kts | 49° |
| 2026-04-20 20:12 | 52.14798 | 5.78240 | 38241 ft | 484 kts | 49° |
| 2026-04-20 20:12 | 52.19059 | 5.86759 | 38239 ft | 484 kts | 49° |
| 2026-04-20 20:13 | 52.25418 | 5.99525 | 38231 ft | 482 kts | 49° |
| 2026-04-20 20:13 | 52.29616 | 6.07987 | 38227 ft | 482 kts | 49° |
| 2026-04-20 20:14 | 52.33828 | 6.16508 | 38222 ft | 481 kts | 50° |
| 2026-04-20 20:14 | 52.38028 | 6.25032 | 38219 ft | 481 kts | 50° |
| 2026-04-20 20:15 | 52.42204 | 6.33585 | 38226 ft | 480 kts | 50° |
| 2026-04-20 20:15 | 52.46347 | 6.42147 | 38223 ft | 479 kts | 50° |
| 2026-04-20 20:16 | 52.50497 | 6.50692 | 38221 ft | 478 kts | 50° |
| 2026-04-20 20:16 | 52.54390 | 6.59539 | 38223 ft | 479 kts | 60° |
| 2026-04-20 20:17 | 52.57137 | 6.69213 | 38221 ft | 480 kts | 65° |
| 2026-04-20 20:17 | 52.58483 | 6.74256 | 37974 ft | 484 kts | 64° |
| 2026-04-20 20:17 | 52.59883 | 6.79305 | 37454 ft | 483 kts | 64° |
| 2026-04-20 20:18 | 52.61315 | 6.84278 | 36986 ft | 479 kts | 63° |
| 2026-04-20 20:18 | 52.62747 | 6.89122 | 36517 ft | 477 kts | 63° |
| 2026-04-20 20:18 | 52.64215 | 6.94020 | 36044 ft | 476 kts | 63° |
| 2026-04-20 20:18 | 52.65688 | 6.98913 | 35587 ft | 476 kts | 63° |
| 2026-04-20 20:19 | 52.67155 | 7.03794 | 35114 ft | 475 kts | 63° |
| 2026-04-20 20:19 | 52.68617 | 7.08669 | 34667 ft | 475 kts | 63° |
| 2026-04-20 20:19 | 52.70075 | 7.13548 | 34192 ft | 474 kts | 63° |
| 2026-04-20 20:19 | 52.71531 | 7.18434 | 33644 ft | 473 kts | 64° |
| 2026-04-20 20:20 | 52.72979 | 7.23310 | 33090 ft | 472 kts | 64° |
| 2026-04-20 20:20 | 52.74417 | 7.28161 | 32561 ft | 470 kts | 64° |
| 2026-04-20 20:20 | 52.75846 | 7.32995 | 32042 ft | 468 kts | 64° |
| 2026-04-20 20:20 | 52.77270 | 7.37820 | 31534 ft | 467 kts | 64° |
| 2026-04-20 20:21 | 52.78691 | 7.42648 | 30988 ft | 467 kts | 64° |
| 2026-04-20 20:21 | 52.80110 | 7.47474 | 30396 ft | 466 kts | 64° |
| 2026-04-20 20:21 | 52.81518 | 7.52275 | 29729 ft | 461 kts | 64° |
| 2026-04-20 20:21 | 52.82903 | 7.57008 | 29122 ft | 456 kts | 64° |
| 2026-04-20 20:22 | 52.84276 | 7.61707 | 28528 ft | 451 kts | 64° |
| 2026-04-20 20:22 | 52.85631 | 7.66355 | 27964 ft | 447 kts | 64° |
| 2026-04-20 20:22 | 52.86971 | 7.70961 | 27406 ft | 442 kts | 64° |
| 2026-04-20 20:22 | 52.88297 | 7.75537 | 26847 ft | 438 kts | 64° |
| 2026-04-20 20:23 | 52.89578 | 7.80035 | 26309 ft | 435 kts | 64° |
| 2026-04-20 20:23 | 52.90858 | 7.84548 | 25765 ft | 431 kts | 64° |
| 2026-04-20 20:23 | 52.92133 | 7.89031 | 25223 ft | 427 kts | 64° |
| 2026-04-20 20:23 | 52.93397 | 7.93456 | 24686 ft | 423 kts | 64° |
| 2026-04-20 20:24 | 52.94654 | 7.97844 | 24156 ft | 419 kts | 64° |
| 2026-04-20 20:24 | 52.95902 | 8.02199 | 23604 ft | 416 kts | 64° |
| 2026-04-20 20:24 | 52.97135 | 8.06503 | 23047 ft | 409 kts | 64° |
| 2026-04-20 20:24 | 52.98348 | 8.10740 | 22493 ft | 406 kts | 64° |
| 2026-04-20 20:25 | 52.99558 | 8.14974 | 21971 ft | 404 kts | 64° |
| 2026-04-20 20:25 | 53.00687 | 8.18933 | 21483 ft | 401 kts | 64° |
| 2026-04-20 20:25 | 53.01876 | 8.23111 | 20977 ft | 398 kts | 64° |
| 2026-04-20 20:25 | 53.03051 | 8.27245 | 20475 ft | 394 kts | 64° |
| 2026-04-20 20:26 | 53.04201 | 8.31299 | 19988 ft | 391 kts | 64° |
| 2026-04-20 20:26 | 53.05357 | 8.35381 | 19493 ft | 388 kts | 64° |
| 2026-04-20 20:26 | 53.06501 | 8.39430 | 19006 ft | 385 kts | 64° |
| 2026-04-20 20:26 | 53.07636 | 8.43454 | 18515 ft | 382 kts | 64° |
| 2026-04-20 20:27 | 53.08757 | 8.47431 | 17977 ft | 379 kts | 65° |
| 2026-04-20 20:27 | 53.09871 | 8.51395 | 17474 ft | 376 kts | 65° |
| 2026-04-20 20:27 | 53.10973 | 8.55319 | 16996 ft | 372 kts | 65° |
| 2026-04-20 20:27 | 53.12064 | 8.59214 | 16521 ft | 370 kts | 65° |
| 2026-04-20 20:28 | 53.13148 | 8.63086 | 16053 ft | 367 kts | 65° |
| 2026-04-20 20:28 | 53.14223 | 8.66934 | 15597 ft | 365 kts | 65° |
| 2026-04-20 20:28 | 53.15288 | 8.70753 | 15129 ft | 362 kts | 65° |
| 2026-04-20 20:28 | 53.16329 | 8.74492 | 14664 ft | 359 kts | 65° |
| 2026-04-20 20:29 | 53.17375 | 8.78257 | 14211 ft | 357 kts | 65° |
| 2026-04-20 20:29 | 53.18414 | 8.82000 | 13720 ft | 355 kts | 65° |
| 2026-04-20 20:29 | 53.19444 | 8.85719 | 13236 ft | 352 kts | 65° |
| 2026-04-20 20:29 | 53.20468 | 8.89420 | 12648 ft | 351 kts | 65° |
| 2026-04-20 20:30 | 53.21482 | 8.93091 | 12099 ft | 345 kts | 66° |
| 2026-04-20 20:30 | 53.22481 | 8.96717 | 11609 ft | 342 kts | 66° |
| 2026-04-20 20:30 | 53.23471 | 9.00319 | 11166 ft | 340 kts | 66° |
| 2026-04-20 20:30 | 53.24436 | 9.03900 | 10876 ft | 338 kts | 66° |
| 2026-04-20 20:31 | 53.25384 | 9.07440 | 10737 ft | 324 kts | 66° |
| 2026-04-20 20:31 | 53.26274 | 9.10747 | 10627 ft | 300 kts | 66° |
| 2026-04-20 20:31 | 53.27103 | 9.13812 | 10526 ft | 279 kts | 66° |
| 2026-04-20 20:31 | 53.27875 | 9.16658 | 10416 ft | 261 kts | 66° |
| 2026-04-20 20:32 | 53.28619 | 9.19403 | 10321 ft | 262 kts | 66° |
| 2026-04-20 20:32 | 53.29368 | 9.22164 | 10191 ft | 261 kts | 66° |
| 2026-04-20 20:32 | 53.30120 | 9.24936 | 9904 ft | 261 kts | 66° |
| 2026-04-20 20:32 | 53.30871 | 9.27693 | 9460 ft | 259 kts | 65° |
| 2026-04-20 20:33 | 53.31749 | 9.30319 | 9048 ft | 258 kts | 59° |
| 2026-04-20 20:33 | 53.32712 | 9.32832 | 8575 ft | 256 kts | 58° |
| 2026-04-20 20:33 | 53.33682 | 9.35326 | 8060 ft | 255 kts | 58° |
| 2026-04-20 20:33 | 53.34648 | 9.37802 | 7584 ft | 254 kts | 58° |
| 2026-04-20 20:34 | 53.35610 | 9.40272 | 7098 ft | 252 kts | 58° |
| 2026-04-20 20:34 | 53.36563 | 9.42723 | 6638 ft | 250 kts | 58° |
| 2026-04-20 20:34 | 53.37506 | 9.45155 | 6204 ft | 247 kts | 58° |
| 2026-04-20 20:34 | 53.38426 | 9.47536 | 6057 ft | 247 kts | 58° |
| 2026-04-20 20:35 | 53.39364 | 9.49967 | 5929 ft | 247 kts | 58° |
| 2026-04-20 20:35 | 53.40297 | 9.52389 | 5809 ft | 247 kts | 58° |
| 2026-04-20 20:35 | 53.41255 | 9.54782 | 5662 ft | 246 kts | 55° |
| 2026-04-20 20:35 | 53.42306 | 9.57005 | 5551 ft | 246 kts | 52° |
| 2026-04-20 20:36 | 53.43409 | 9.59198 | 5419 ft | 245 kts | 51° |
| 2026-04-20 20:36 | 53.44510 | 9.61382 | 5292 ft | 245 kts | 51° |
| 2026-04-20 20:36 | 53.45590 | 9.63533 | 5145 ft | 236 kts | 52° |
| 2026-04-20 20:36 | 53.46630 | 9.65612 | 4845 ft | 229 kts | 52° |
| 2026-04-20 20:37 | 53.47640 | 9.67637 | 4546 ft | 223 kts | 52° |
| 2026-04-20 20:37 | 53.48617 | 9.69600 | 4270 ft | 212 kts | 52° |
| 2026-04-20 20:37 | 53.49542 | 9.71461 | 3999 ft | 202 kts | 53° |
| 2026-04-20 20:37 | 53.50407 | 9.73200 | 3725 ft | 186 kts | 53° |
| 2026-04-20 20:38 | 53.51188 | 9.74771 | 3467 ft | 165 kts | 54° |
| 2026-04-20 20:38 | 53.51887 | 9.76181 | 3248 ft | 154 kts | 54° |
| 2026-04-20 20:38 | 53.52563 | 9.77552 | 3057 ft | 151 kts | 55° |
| 2026-04-20 20:38 | 53.53231 | 9.78908 | 2865 ft | 150 kts | 55° |
| 2026-04-20 20:39 | 53.53893 | 9.80249 | 2658 ft | 148 kts | 56° |
| 2026-04-20 20:39 | 53.54549 | 9.81581 | 2484 ft | 149 kts | 56° |
| 2026-04-20 20:39 | 53.55201 | 9.82900 | 2265 ft | 145 kts | 56° |
| 2026-04-20 20:39 | 53.55830 | 9.84177 | 2052 ft | 143 kts | 56° |
| 2026-04-20 20:40 | 53.56449 | 9.85430 | 1849 ft | 134 kts | 56° |
| 2026-04-20 20:40 | 53.57011 | 9.86566 | 1628 ft | 123 kts | 56° |
| 2026-04-20 20:40 | 53.57558 | 9.87679 | 1509 ft | 124 kts | 55° |
| 2026-04-20 20:40 | 53.58110 | 9.88803 | 1350 ft | 125 kts | 55° |
| 2026-04-20 20:41 | 53.58663 | 9.89928 | 1163 ft | 125 kts | 54° |
| 2026-04-20 20:41 | 53.59216 | 9.91067 | 1002 ft | 127 kts | 53° |
| 2026-04-20 20:41 | 53.59791 | 9.92234 | 760 ft | 130 kts | 52° |
| 2026-04-20 20:41 | 53.60367 | 9.93407 | 566 ft | 133 kts | 50° |
| 2026-04-20 20:42 | 53.60961 | 9.94616 | 391 ft | 135 kts | 51° |
| 2026-04-20 20:42 | 53.61561 | 9.95833 | 231 ft | 135 kts | 50° |
| 2026-04-20 20:42 | 53.62156 | 9.97042 | 56 ft | 133 kts | 50° |
| 2026-04-20 20:42 | 53.62662 | 9.98073 | 52 ft | 94 kts | 50° |
| 2026-04-20 20:43 | 53.62991 | 9.98726 | 52 ft | 55 kts | 50° |
| 2026-04-20 20:43 | 53.63206 | 9.99160 | 55 ft | 42 kts | 50° |
| 2026-04-20 20:43 | 53.63297 | 9.99436 | 52 ft | 20 kts | 92° |
| 2026-04-20 20:43 | 53.63281 | 9.99621 | 57 ft | 13 kts | 99° |
| 2026-04-20 20:44 | 53.63275 | 9.99679 | 56 ft | 2 kts | 99° |
| 2026-04-20 20:44 | 53.63271 | 9.99698 | 53 ft | 2 kts | 110° |
| 2026-04-20 20:44 | 53.63262 | 9.99720 | 51 ft | 3 kts | 125° |
| 2026-04-20 20:44 | 53.63244 | 9.99743 | 56 ft | 4 kts | 146° |
| 2026-04-20 20:45 | 53.63213 | 9.99771 | 53 ft | 6 kts | 153° |
| 2026-04-20 20:45 | 53.63168 | 9.99810 | 51 ft | 8 kts | 152° |
| 2026-04-20 20:45 | 53.63135 | 9.99839 | 55 ft | 8 kts | 153° |
| 2026-04-20 20:45 | 53.63081 | 9.99886 | 54 ft | 9 kts | 152° |
| 2026-04-20 20:46 | 53.63024 | 9.99935 | 54 ft | 9 kts | 154° |
| 2026-04-20 20:46 | 53.62957 | 10.00012 | 50 ft | 8 kts | 123° |
| 2026-04-20 20:46 | 53.62959 | 10.00085 | 53 ft | 5 kts | 66° |
| 2026-04-20 20:46 | 53.62982 | 10.00124 | 54 ft | 4 kts | 38° |
| 2026-04-20 20:47 | 53.62999 | 10.00145 | 51 ft | 4 kts | 35° |
| 2026-04-20 20:47 | 53.63025 | 10.00175 | 50 ft | 5 kts | 34° |
| 2026-04-20 20:47 | 53.63045 | 10.00209 | 52 ft | 3 kts | 57° |
| 2026-04-20 20:47 | 53.63049 | 10.00242 | 52 ft | 2 kts | 86° |
| 2026-04-20 20:48 | 53.63044 | 10.00266 | 55 ft | 2 kts | 114° |
| 2026-04-20 20:48 | 53.63035 | 10.00289 | 53 ft | 3 kts | 124° |
| 2026-04-20 20:48 | 53.63022 | 10.00321 | 53 ft | 4 kts | 123° |
| 2026-04-20 20:48 | 53.63012 | 10.00346 | 51 ft | 1 kts | 123° |